sensor_id;sensor_type;location;lat;lon;timestamp;P1;durP1;ratioP1;P2;durP2;ratioP2
18999;SDS011;9633;50.980;13.850;2024-03-06T00:00:45;45.13;;;26.40;;
18999;SDS011;9633;50.980;13.850;2024-03-06T00:02:18;42.17;;;25.93;;
18999;SDS011;9633;50.980;13.850;2024-03-06T00:03:52;49.20;;;26.67;;
18999;SDS011;9633;50.980;13.850;2024-03-06T00:05:25;41.33;;;25.63;;
18999;SDS011;9633;50.980;13.850;2024-03-06T00:06:57;42.60;;;25.90;;
18999;SDS011;9633;50.980;13.850;2024-03-06T00:08:31;47.03;;;28.53;;
18999;SDS011;9633;50.980;13.850;2024-03-06T00:10:03;44.67;;;27.03;;
18999;SDS011;9633;50.980;13.850;2024-03-06T00:11:37;50.23;;;28.80;;
18999;SDS011;9633;50.980;13.850;2024-03-06T00:13:09;46.60;;;27.90;;
18999;SDS011;9633;50.980;13.850;2024-03-06T00:14:43;43.80;;;26.77;;
18999;SDS011;9633;50.980;13.850;2024-03-06T00:16:16;45.63;;;26.40;;
18999;SDS011;9633;50.980;13.850;2024-03-06T00:17:50;49.97;;;27.07;;
18999;SDS011;9633;50.980;13.850;2024-03-06T00:19:24;47.93;;;28.27;;
18999;SDS011;9633;50.980;13.850;2024-03-06T00:20:58;50.10;;;27.30;;
18999;SDS011;9633;50.980;13.850;2024-03-06T00:22:30;46.00;;;27.87;;
18999;SDS011;9633;50.980;13.850;2024-03-06T00:24:03;49.60;;;28.30;;
18999;SDS011;9633;50.980;13.850;2024-03-06T00:25:36;48.20;;;27.47;;
18999;SDS011;9633;50.980;13.850;2024-03-06T00:27:09;46.20;;;26.73;;
18999;SDS011;9633;50.980;13.850;2024-03-06T00:28:41;44.27;;;26.60;;
18999;SDS011;9633;50.980;13.850;2024-03-06T00:30:15;43.50;;;26.17;;
18999;SDS011;9633;50.980;13.850;2024-03-06T00:31:47;42.47;;;25.53;;
18999;SDS011;9633;50.980;13.850;2024-03-06T00:33:20;49.10;;;29.37;;
18999;SDS011;9633;50.980;13.850;2024-03-06T00:34:54;45.93;;;28.00;;
18999;SDS011;9633;50.980;13.850;2024-03-06T00:36:27;45.17;;;28.10;;
18999;SDS011;9633;50.980;13.850;2024-03-06T00:38:00;43.67;;;27.73;;
18999;SDS011;9633;50.980;13.850;2024-03-06T00:39:34;43.67;;;25.87;;
18999;SDS011;9633;50.980;13.850;2024-03-06T00:41:07;47.13;;;27.80;;
18999;SDS011;9633;50.980;13.850;2024-03-06T00:42:40;49.77;;;28.63;;
18999;SDS011;9633;50.980;13.850;2024-03-06T00:44:13;45.73;;;26.83;;
18999;SDS011;9633;50.980;13.850;2024-03-06T00:45:48;45.47;;;26.17;;
18999;SDS011;9633;50.980;13.850;2024-03-06T00:47:20;46.47;;;27.07;;
18999;SDS011;9633;50.980;13.850;2024-03-06T00:48:54;43.57;;;26.50;;
18999;SDS011;9633;50.980;13.850;2024-03-06T00:50:27;44.43;;;28.87;;
18999;SDS011;9633;50.980;13.850;2024-03-06T00:52:01;46.77;;;27.60;;
18999;SDS011;9633;50.980;13.850;2024-03-06T00:53:35;44.43;;;26.03;;
18999;SDS011;9633;50.980;13.850;2024-03-06T00:55:08;47.00;;;28.23;;
18999;SDS011;9633;50.980;13.850;2024-03-06T00:56:41;43.80;;;26.20;;
18999;SDS011;9633;50.980;13.850;2024-03-06T00:58:13;41.87;;;27.03;;
18999;SDS011;9633;50.980;13.850;2024-03-06T00:59:46;47.37;;;27.90;;
18999;SDS011;9633;50.980;13.850;2024-03-06T01:01:18;47.70;;;27.87;;
18999;SDS011;9633;50.980;13.850;2024-03-06T01:02:52;44.63;;;27.30;;
18999;SDS011;9633;50.980;13.850;2024-03-06T01:04:24;46.70;;;28.57;;
18999;SDS011;9633;50.980;13.850;2024-03-06T01:05:58;43.73;;;27.43;;
18999;SDS011;9633;50.980;13.850;2024-03-06T01:07:30;45.23;;;27.70;;
18999;SDS011;9633;50.980;13.850;2024-03-06T01:09:03;48.07;;;28.40;;
18999;SDS011;9633;50.980;13.850;2024-03-06T01:10:36;50.57;;;29.60;;
18999;SDS011;9633;50.980;13.850;2024-03-06T01:12:09;48.67;;;28.40;;
18999;SDS011;9633;50.980;13.850;2024-03-06T01:13:42;48.00;;;29.20;;
18999;SDS011;9633;50.980;13.850;2024-03-06T01:15:15;49.00;;;28.23;;
18999;SDS011;9633;50.980;13.850;2024-03-06T01:16:47;45.30;;;28.23;;
18999;SDS011;9633;50.980;13.850;2024-03-06T01:18:21;46.10;;;27.97;;
18999;SDS011;9633;50.980;13.850;2024-03-06T01:19:53;47.87;;;28.87;;
18999;SDS011;9633;50.980;13.850;2024-03-06T01:21:27;45.17;;;25.90;;
18999;SDS011;9633;50.980;13.850;2024-03-06T01:23:00;50.33;;;29.30;;
18999;SDS011;9633;50.980;13.850;2024-03-06T01:24:34;48.77;;;28.07;;
18999;SDS011;9633;50.980;13.850;2024-03-06T01:26:06;44.87;;;27.27;;
18999;SDS011;9633;50.980;13.850;2024-03-06T01:27:39;45.57;;;26.53;;
18999;SDS011;9633;50.980;13.850;2024-03-06T01:29:11;48.43;;;28.77;;
18999;SDS011;9633;50.980;13.850;2024-03-06T01:30:44;48.00;;;27.10;;
18999;SDS011;9633;50.980;13.850;2024-03-06T01:32:16;45.37;;;28.53;;
18999;SDS011;9633;50.980;13.850;2024-03-06T01:33:50;44.97;;;26.90;;
18999;SDS011;9633;50.980;13.850;2024-03-06T01:35:22;43.13;;;25.73;;
18999;SDS011;9633;50.980;13.850;2024-03-06T01:36:57;40.73;;;25.43;;
18999;SDS011;9633;50.980;13.850;2024-03-06T01:38:29;43.83;;;25.90;;
18999;SDS011;9633;50.980;13.850;2024-03-06T01:40:03;40.83;;;25.30;;
18999;SDS011;9633;50.980;13.850;2024-03-06T01:41:36;43.90;;;26.23;;
18999;SDS011;9633;50.980;13.850;2024-03-06T01:43:17;44.73;;;25.93;;
18999;SDS011;9633;50.980;13.850;2024-03-06T01:44:54;40.80;;;24.90;;
18999;SDS011;9633;50.980;13.850;2024-03-06T01:46:26;40.90;;;25.03;;
18999;SDS011;9633;50.980;13.850;2024-03-06T01:47:59;44.47;;;26.30;;
18999;SDS011;9633;50.980;13.850;2024-03-06T01:49:31;46.70;;;27.07;;
18999;SDS011;9633;50.980;13.850;2024-03-06T01:51:15;41.30;;;24.27;;
18999;SDS011;9633;50.980;13.850;2024-03-06T01:52:49;43.37;;;26.73;;
18999;SDS011;9633;50.980;13.850;2024-03-06T01:54:23;45.13;;;27.13;;
18999;SDS011;9633;50.980;13.850;2024-03-06T01:55:56;40.73;;;24.83;;
18999;SDS011;9633;50.980;13.850;2024-03-06T01:57:29;40.10;;;24.83;;
18999;SDS011;9633;50.980;13.850;2024-03-06T01:59:02;45.07;;;24.77;;
18999;SDS011;9633;50.980;13.850;2024-03-06T02:00:35;47.00;;;26.67;;
18999;SDS011;9633;50.980;13.850;2024-03-06T02:02:09;40.23;;;25.03;;
18999;SDS011;9633;50.980;13.850;2024-03-06T02:03:43;43.00;;;26.90;;
18999;SDS011;9633;50.980;13.850;2024-03-06T02:05:17;42.50;;;26.37;;
18999;SDS011;9633;50.980;13.850;2024-03-06T02:06:50;45.80;;;27.83;;
18999;SDS011;9633;50.980;13.850;2024-03-06T02:08:25;47.60;;;27.83;;
18999;SDS011;9633;50.980;13.850;2024-03-06T02:09:57;46.70;;;27.37;;
18999;SDS011;9633;50.980;13.850;2024-03-06T02:11:30;49.63;;;28.83;;
18999;SDS011;9633;50.980;13.850;2024-03-06T02:13:03;49.67;;;28.53;;
18999;SDS011;9633;50.980;13.850;2024-03-06T02:14:36;48.03;;;27.77;;
18999;SDS011;9633;50.980;13.850;2024-03-06T02:16:09;45.87;;;26.93;;
18999;SDS011;9633;50.980;13.850;2024-03-06T02:17:42;50.17;;;28.87;;
18999;SDS011;9633;50.980;13.850;2024-03-06T02:19:14;49.97;;;28.50;;
18999;SDS011;9633;50.980;13.850;2024-03-06T02:20:51;46.43;;;27.43;;
18999;SDS011;9633;50.980;13.850;2024-03-06T02:22:23;49.90;;;27.90;;
18999;SDS011;9633;50.980;13.850;2024-03-06T02:23:56;48.30;;;29.33;;
18999;SDS011;9633;50.980;13.850;2024-03-06T02:25:29;54.60;;;29.77;;
18999;SDS011;9633;50.980;13.850;2024-03-06T02:27:03;52.10;;;28.70;;
18999;SDS011;9633;50.980;13.850;2024-03-06T02:28:36;54.27;;;29.97;;
18999;SDS011;9633;50.980;13.850;2024-03-06T02:30:10;46.87;;;28.63;;
18999;SDS011;9633;50.980;13.850;2024-03-06T02:31:42;50.77;;;28.63;;
18999;SDS011;9633;50.980;13.850;2024-03-06T02:33:15;48.73;;;28.17;;
18999;SDS011;9633;50.980;13.850;2024-03-06T02:34:49;49.07;;;27.80;;
18999;SDS011;9633;50.980;13.850;2024-03-06T02:36:23;50.37;;;28.80;;
18999;SDS011;9633;50.980;13.850;2024-03-06T02:37:57;53.40;;;30.03;;
18999;SDS011;9633;50.980;13.850;2024-03-06T02:39:30;53.33;;;29.67;;
18999;SDS011;9633;50.980;13.850;2024-03-06T02:41:03;50.87;;;29.83;;
18999;SDS011;9633;50.980;13.850;2024-03-06T02:42:38;49.07;;;29.07;;
18999;SDS011;9633;50.980;13.850;2024-03-06T02:44:10;53.03;;;29.50;;
18999;SDS011;9633;50.980;13.850;2024-03-06T02:45:43;50.30;;;29.73;;
18999;SDS011;9633;50.980;13.850;2024-03-06T02:47:17;51.83;;;29.47;;
18999;SDS011;9633;50.980;13.850;2024-03-06T02:48:49;51.37;;;28.77;;
18999;SDS011;9633;50.980;13.850;2024-03-06T02:50:22;58.07;;;29.87;;
18999;SDS011;9633;50.980;13.850;2024-03-06T02:51:56;53.67;;;28.87;;
18999;SDS011;9633;50.980;13.850;2024-03-06T02:53:32;54.37;;;30.97;;
18999;SDS011;9633;50.980;13.850;2024-03-06T02:55:05;53.73;;;29.37;;
18999;SDS011;9633;50.980;13.850;2024-03-06T02:56:38;55.07;;;30.67;;
18999;SDS011;9633;50.980;13.850;2024-03-06T02:58:11;61.93;;;33.13;;
18999;SDS011;9633;50.980;13.850;2024-03-06T02:59:44;66.83;;;33.73;;
18999;SDS011;9633;50.980;13.850;2024-03-06T03:01:16;61.77;;;32.07;;
18999;SDS011;9633;50.980;13.850;2024-03-06T03:02:49;58.60;;;32.33;;
18999;SDS011;9633;50.980;13.850;2024-03-06T03:04:23;59.60;;;32.13;;
18999;SDS011;9633;50.980;13.850;2024-03-06T03:05:56;59.23;;;32.60;;
18999;SDS011;9633;50.980;13.850;2024-03-06T03:07:30;61.67;;;32.23;;
18999;SDS011;9633;50.980;13.850;2024-03-06T03:09:03;59.20;;;31.67;;
18999;SDS011;9633;50.980;13.850;2024-03-06T03:10:35;58.83;;;32.13;;
18999;SDS011;9633;50.980;13.850;2024-03-06T03:12:09;56.53;;;31.40;;
18999;SDS011;9633;50.980;13.850;2024-03-06T03:13:42;59.97;;;33.70;;
18999;SDS011;9633;50.980;13.850;2024-03-06T03:15:15;67.60;;;34.37;;
18999;SDS011;9633;50.980;13.850;2024-03-06T03:16:48;62.67;;;33.53;;
18999;SDS011;9633;50.980;13.850;2024-03-06T03:18:24;65.00;;;34.53;;
18999;SDS011;9633;50.980;13.850;2024-03-06T03:19:57;67.30;;;35.53;;
18999;SDS011;9633;50.980;13.850;2024-03-06T03:21:30;66.30;;;34.30;;
18999;SDS011;9633;50.980;13.850;2024-03-06T03:23:05;66.77;;;34.77;;
18999;SDS011;9633;50.980;13.850;2024-03-06T03:24:43;63.77;;;33.67;;
18999;SDS011;9633;50.980;13.850;2024-03-06T03:26:15;65.73;;;35.67;;
18999;SDS011;9633;50.980;13.850;2024-03-06T03:27:48;67.23;;;34.93;;
18999;SDS011;9633;50.980;13.850;2024-03-06T03:29:20;69.13;;;35.07;;
18999;SDS011;9633;50.980;13.850;2024-03-06T03:30:56;62.17;;;34.87;;
18999;SDS011;9633;50.980;13.850;2024-03-06T03:32:28;65.73;;;35.67;;
18999;SDS011;9633;50.980;13.850;2024-03-06T03:34:01;67.03;;;35.30;;
18999;SDS011;9633;50.980;13.850;2024-03-06T03:35:34;72.70;;;37.43;;
18999;SDS011;9633;50.980;13.850;2024-03-06T03:37:07;68.97;;;35.80;;
18999;SDS011;9633;50.980;13.850;2024-03-06T03:38:41;69.60;;;35.57;;
18999;SDS011;9633;50.980;13.850;2024-03-06T03:40:14;69.50;;;36.10;;
18999;SDS011;9633;50.980;13.850;2024-03-06T03:41:48;67.00;;;34.70;;
18999;SDS011;9633;50.980;13.850;2024-03-06T03:43:21;58.60;;;33.17;;
18999;SDS011;9633;50.980;13.850;2024-03-06T03:44:53;61.13;;;34.33;;
18999;SDS011;9633;50.980;13.850;2024-03-06T03:46:26;62.03;;;34.13;;
18999;SDS011;9633;50.980;13.850;2024-03-06T03:47:59;65.40;;;35.23;;
18999;SDS011;9633;50.980;13.850;2024-03-06T03:49:34;61.30;;;33.97;;
18999;SDS011;9633;50.980;13.850;2024-03-06T03:51:06;64.23;;;33.63;;
18999;SDS011;9633;50.980;13.850;2024-03-06T03:52:39;61.13;;;33.77;;
18999;SDS011;9633;50.980;13.850;2024-03-06T03:54:15;60.43;;;33.13;;
18999;SDS011;9633;50.980;13.850;2024-03-06T03:55:48;59.20;;;33.63;;
18999;SDS011;9633;50.980;13.850;2024-03-06T03:57:21;61.53;;;32.80;;
18999;SDS011;9633;50.980;13.850;2024-03-06T03:58:55;63.00;;;33.23;;
18999;SDS011;9633;50.980;13.850;2024-03-06T04:00:27;56.53;;;31.13;;
18999;SDS011;9633;50.980;13.850;2024-03-06T04:02:02;65.90;;;31.90;;
18999;SDS011;9633;50.980;13.850;2024-03-06T04:03:35;60.97;;;32.10;;
18999;SDS011;9633;50.980;13.850;2024-03-06T04:05:08;58.70;;;31.23;;
18999;SDS011;9633;50.980;13.850;2024-03-06T04:06:41;61.90;;;32.63;;
18999;SDS011;9633;50.980;13.850;2024-03-06T04:08:14;53.70;;;30.03;;
18999;SDS011;9633;50.980;13.850;2024-03-06T04:09:47;57.13;;;30.47;;
18999;SDS011;9633;50.980;13.850;2024-03-06T04:11:21;56.47;;;29.95;;
18999;SDS011;9633;50.980;13.850;2024-03-06T04:12:55;58.03;;;31.70;;
18999;SDS011;9633;50.980;13.850;2024-03-06T04:14:27;61.90;;;31.47;;
18999;SDS011;9633;50.980;13.850;2024-03-06T04:16:01;58.92;;;30.83;;
18999;SDS011;9633;50.980;13.850;2024-03-06T04:17:35;55.10;;;30.88;;
18999;SDS011;9633;50.980;13.850;2024-03-06T04:19:07;52.27;;;29.90;;
18999;SDS011;9633;50.980;13.850;2024-03-06T04:20:41;60.65;;;32.83;;
18999;SDS011;9633;50.980;13.850;2024-03-06T04:22:13;57.72;;;31.20;;
18999;SDS011;9633;50.980;13.850;2024-03-06T04:23:46;55.42;;;29.55;;
18999;SDS011;9633;50.980;13.850;2024-03-06T04:25:20;63.37;;;32.00;;
18999;SDS011;9633;50.980;13.850;2024-03-06T04:26:55;65.27;;;33.67;;
18999;SDS011;9633;50.980;13.850;2024-03-06T04:28:27;65.45;;;33.38;;
18999;SDS011;9633;50.980;13.850;2024-03-06T04:30:00;62.37;;;33.17;;
18999;SDS011;9633;50.980;13.850;2024-03-06T04:31:34;61.77;;;33.00;;
18999;SDS011;9633;50.980;13.850;2024-03-06T04:33:08;65.47;;;32.77;;
18999;SDS011;9633;50.980;13.850;2024-03-06T04:34:40;64.50;;;33.63;;
18999;SDS011;9633;50.980;13.850;2024-03-06T04:36:13;64.67;;;33.83;;
18999;SDS011;9633;50.980;13.850;2024-03-06T04:37:47;61.90;;;33.63;;
18999;SDS011;9633;50.980;13.850;2024-03-06T04:39:19;66.77;;;34.80;;
18999;SDS011;9633;50.980;13.850;2024-03-06T04:40:53;70.70;;;34.70;;
18999;SDS011;9633;50.980;13.850;2024-03-06T04:42:26;69.87;;;34.33;;
18999;SDS011;9633;50.980;13.850;2024-03-06T04:43:59;62.23;;;33.40;;
18999;SDS011;9633;50.980;13.850;2024-03-06T04:45:32;65.93;;;34.50;;
18999;SDS011;9633;50.980;13.850;2024-03-06T04:47:06;66.90;;;33.47;;
18999;SDS011;9633;50.980;13.850;2024-03-06T04:48:38;61.87;;;33.23;;
18999;SDS011;9633;50.980;13.850;2024-03-06T04:50:12;67.37;;;36.17;;
18999;SDS011;9633;50.980;13.850;2024-03-06T04:51:46;64.50;;;33.43;;
18999;SDS011;9633;50.980;13.850;2024-03-06T04:53:19;63.53;;;34.43;;
18999;SDS011;9633;50.980;13.850;2024-03-06T04:54:53;58.03;;;32.33;;
18999;SDS011;9633;50.980;13.850;2024-03-06T04:56:27;61.97;;;32.23;;
18999;SDS011;9633;50.980;13.850;2024-03-06T04:57:59;58.47;;;32.07;;
18999;SDS011;9633;50.980;13.850;2024-03-06T04:59:32;58.10;;;30.73;;
18999;SDS011;9633;50.980;13.850;2024-03-06T05:01:04;59.30;;;32.40;;
18999;SDS011;9633;50.980;13.850;2024-03-06T05:02:38;56.27;;;32.67;;
18999;SDS011;9633;50.980;13.850;2024-03-06T05:04:28;60.00;;;31.70;;
18999;SDS011;9633;50.980;13.850;2024-03-06T05:06:18;57.03;;;31.37;;
18999;SDS011;9633;50.980;13.850;2024-03-06T05:08:11;53.83;;;30.53;;
18999;SDS011;9633;50.980;13.850;2024-03-06T05:10:01;55.17;;;32.20;;
18999;SDS011;9633;50.980;13.850;2024-03-06T05:11:53;56.67;;;31.13;;
18999;SDS011;9633;50.980;13.850;2024-03-06T05:13:44;53.30;;;30.23;;
18999;SDS011;9633;50.980;13.850;2024-03-06T05:15:34;61.33;;;31.80;;
18999;SDS011;9633;50.980;13.850;2024-03-06T05:17:25;57.30;;;33.00;;
18999;SDS011;9633;50.980;13.850;2024-03-06T05:19:15;55.57;;;30.83;;
18999;SDS011;9633;50.980;13.850;2024-03-06T05:21:06;60.97;;;33.03;;
18999;SDS011;9633;50.980;13.850;2024-03-06T05:22:57;54.23;;;30.50;;
18999;SDS011;9633;50.980;13.850;2024-03-06T05:24:48;59.43;;;31.10;;
18999;SDS011;9633;50.980;13.850;2024-03-06T05:26:38;52.20;;;29.87;;
18999;SDS011;9633;50.980;13.850;2024-03-06T05:28:30;51.40;;;30.57;;
18999;SDS011;9633;50.980;13.850;2024-03-06T05:30:20;50.30;;;28.77;;
18999;SDS011;9633;50.980;13.850;2024-03-06T05:32:10;54.03;;;29.87;;
18999;SDS011;9633;50.980;13.850;2024-03-06T05:34:01;52.07;;;30.30;;
18999;SDS011;9633;50.980;13.850;2024-03-06T05:35:53;53.83;;;29.90;;
18999;SDS011;9633;50.980;13.850;2024-03-06T05:37:43;54.67;;;30.17;;
18999;SDS011;9633;50.980;13.850;2024-03-06T05:39:34;51.77;;;30.30;;
18999;SDS011;9633;50.980;13.850;2024-03-06T05:41:24;53.63;;;30.20;;
18999;SDS011;9633;50.980;13.850;2024-03-06T05:43:15;46.43;;;28.00;;
18999;SDS011;9633;50.980;13.850;2024-03-06T05:45:07;51.57;;;28.73;;
18999;SDS011;9633;50.980;13.850;2024-03-06T05:46:59;53.17;;;29.47;;
18999;SDS011;9633;50.980;13.850;2024-03-06T05:48:50;52.57;;;28.07;;
18999;SDS011;9633;50.980;13.850;2024-03-06T05:50:40;49.83;;;29.73;;
18999;SDS011;9633;50.980;13.850;2024-03-06T05:52:31;46.97;;;27.30;;
18999;SDS011;9633;50.980;13.850;2024-03-06T05:54:22;46.27;;;26.87;;
18999;SDS011;9633;50.980;13.850;2024-03-06T05:56:13;51.00;;;27.30;;
18999;SDS011;9633;50.980;13.850;2024-03-06T05:58:04;47.97;;;27.83;;
18999;SDS011;9633;50.980;13.850;2024-03-06T05:59:42;47.13;;;27.70;;
18999;SDS011;9633;50.980;13.850;2024-03-06T06:01:17;49.63;;;27.40;;
18999;SDS011;9633;50.980;13.850;2024-03-06T06:02:51;47.80;;;27.40;;
18999;SDS011;9633;50.980;13.850;2024-03-06T06:04:24;45.83;;;26.67;;
18999;SDS011;9633;50.980;13.850;2024-03-06T06:05:57;54.20;;;28.43;;
18999;SDS011;9633;50.980;13.850;2024-03-06T06:07:31;46.37;;;27.90;;
18999;SDS011;9633;50.980;13.850;2024-03-06T06:09:03;47.63;;;28.07;;
18999;SDS011;9633;50.980;13.850;2024-03-06T06:10:37;47.00;;;27.43;;
18999;SDS011;9633;50.980;13.850;2024-03-06T06:12:09;49.83;;;28.10;;
18999;SDS011;9633;50.980;13.850;2024-03-06T06:13:42;49.77;;;28.60;;
18999;SDS011;9633;50.980;13.850;2024-03-06T06:15:14;47.50;;;27.50;;
18999;SDS011;9633;50.980;13.850;2024-03-06T06:16:49;49.17;;;28.03;;
18999;SDS011;9633;50.980;13.850;2024-03-06T06:18:23;48.57;;;26.97;;
18999;SDS011;9633;50.980;13.850;2024-03-06T06:19:56;48.33;;;28.07;;
18999;SDS011;9633;50.980;13.850;2024-03-06T06:21:29;52.53;;;30.83;;
18999;SDS011;9633;50.980;13.850;2024-03-06T06:23:01;49.03;;;30.13;;
18999;SDS011;9633;50.980;13.850;2024-03-06T06:24:35;53.20;;;29.53;;
18999;SDS011;9633;50.980;13.850;2024-03-06T06:26:07;50.17;;;29.50;;
18999;SDS011;9633;50.980;13.850;2024-03-06T06:27:41;48.40;;;26.50;;
18999;SDS011;9633;50.980;13.850;2024-03-06T06:29:13;45.33;;;26.27;;
18999;SDS011;9633;50.980;13.850;2024-03-06T06:30:47;42.27;;;26.17;;
18999;SDS011;9633;50.980;13.850;2024-03-06T06:32:20;43.60;;;26.03;;
18999;SDS011;9633;50.980;13.850;2024-03-06T06:33:53;40.83;;;24.60;;
18999;SDS011;9633;50.980;13.850;2024-03-06T06:35:26;33.33;;;23.50;;
18999;SDS011;9633;50.980;13.850;2024-03-06T06:36:59;36.17;;;23.10;;
18999;SDS011;9633;50.980;13.850;2024-03-06T06:38:31;37.20;;;23.27;;
18999;SDS011;9633;50.980;13.850;2024-03-06T06:40:05;34.10;;;22.60;;
18999;SDS011;9633;50.980;13.850;2024-03-06T06:41:38;35.57;;;22.07;;
18999;SDS011;9633;50.980;13.850;2024-03-06T06:43:12;31.57;;;21.23;;
18999;SDS011;9633;50.980;13.850;2024-03-06T06:44:45;33.10;;;22.23;;
18999;SDS011;9633;50.980;13.850;2024-03-06T06:46:18;36.73;;;23.27;;
18999;SDS011;9633;50.980;13.850;2024-03-06T06:47:51;33.17;;;22.57;;
18999;SDS011;9633;50.980;13.850;2024-03-06T06:49:25;39.10;;;23.90;;
18999;SDS011;9633;50.980;13.850;2024-03-06T06:50:57;32.20;;;21.60;;
18999;SDS011;9633;50.980;13.850;2024-03-06T06:52:30;36.43;;;23.73;;
18999;SDS011;9633;50.980;13.850;2024-03-06T06:54:05;32.50;;;21.50;;
18999;SDS011;9633;50.980;13.850;2024-03-06T06:55:38;32.23;;;21.13;;
18999;SDS011;9633;50.980;13.850;2024-03-06T06:57:10;29.40;;;19.73;;
18999;SDS011;9633;50.980;13.850;2024-03-06T06:58:43;31.60;;;20.90;;
18999;SDS011;9633;50.980;13.850;2024-03-06T07:00:16;30.63;;;21.00;;
18999;SDS011;9633;50.980;13.850;2024-03-06T07:01:50;31.80;;;21.97;;
18999;SDS011;9633;50.980;13.850;2024-03-06T07:03:24;35.77;;;23.03;;
18999;SDS011;9633;50.980;13.850;2024-03-06T07:05:01;36.70;;;22.90;;
18999;SDS011;9633;50.980;13.850;2024-03-06T07:06:33;35.80;;;22.60;;
18999;SDS011;9633;50.980;13.850;2024-03-06T07:08:06;37.20;;;23.77;;
18999;SDS011;9633;50.980;13.850;2024-03-06T07:09:38;33.50;;;23.13;;
18999;SDS011;9633;50.980;13.850;2024-03-06T07:11:12;33.93;;;21.57;;
18999;SDS011;9633;50.980;13.850;2024-03-06T07:12:44;31.40;;;21.30;;
18999;SDS011;9633;50.980;13.850;2024-03-06T07:14:17;34.23;;;22.73;;
18999;SDS011;9633;50.980;13.850;2024-03-06T07:15:49;31.70;;;22.90;;
18999;SDS011;9633;50.980;13.850;2024-03-06T07:17:22;32.47;;;21.73;;
18999;SDS011;9633;50.980;13.850;2024-03-06T07:18:56;34.10;;;24.13;;
18999;SDS011;9633;50.980;13.850;2024-03-06T07:20:31;36.00;;;23.70;;
18999;SDS011;9633;50.980;13.850;2024-03-06T07:22:03;31.50;;;23.27;;
18999;SDS011;9633;50.980;13.850;2024-03-06T07:23:36;31.23;;;22.60;;
18999;SDS011;9633;50.980;13.850;2024-03-06T07:25:10;32.17;;;22.67;;
18999;SDS011;9633;50.980;13.850;2024-03-06T07:26:43;33.27;;;22.87;;
18999;SDS011;9633;50.980;13.850;2024-03-06T07:28:16;32.20;;;23.40;;
18999;SDS011;9633;50.980;13.850;2024-03-06T07:29:48;34.67;;;23.13;;
18999;SDS011;9633;50.980;13.850;2024-03-06T07:31:21;34.10;;;23.80;;
18999;SDS011;9633;50.980;13.850;2024-03-06T07:32:55;36.63;;;23.17;;
18999;SDS011;9633;50.980;13.850;2024-03-06T07:34:30;36.90;;;24.97;;
18999;SDS011;9633;50.980;13.850;2024-03-06T07:36:04;31.90;;;22.97;;
18999;SDS011;9633;50.980;13.850;2024-03-06T07:37:37;35.57;;;24.13;;
18999;SDS011;9633;50.980;13.850;2024-03-06T07:39:10;34.83;;;24.77;;
18999;SDS011;9633;50.980;13.850;2024-03-06T07:40:43;31.73;;;24.07;;
18999;SDS011;9633;50.980;13.850;2024-03-06T07:42:15;34.63;;;23.47;;
18999;SDS011;9633;50.980;13.850;2024-03-06T07:43:49;34.80;;;24.47;;
18999;SDS011;9633;50.980;13.850;2024-03-06T07:45:21;33.60;;;23.77;;
18999;SDS011;9633;50.980;13.850;2024-03-06T07:46:54;35.00;;;24.37;;
18999;SDS011;9633;50.980;13.850;2024-03-06T07:48:27;33.23;;;24.13;;
18999;SDS011;9633;50.980;13.850;2024-03-06T07:50:01;34.60;;;24.60;;
18999;SDS011;9633;50.980;13.850;2024-03-06T07:51:34;38.03;;;26.33;;
18999;SDS011;9633;50.980;13.850;2024-03-06T07:53:08;36.53;;;25.87;;
18999;SDS011;9633;50.980;13.850;2024-03-06T07:54:40;39.00;;;25.90;;
18999;SDS011;9633;50.980;13.850;2024-03-06T07:56:13;37.97;;;25.90;;
18999;SDS011;9633;50.980;13.850;2024-03-06T07:57:45;37.10;;;25.70;;
18999;SDS011;9633;50.980;13.850;2024-03-06T07:59:18;39.37;;;25.90;;
18999;SDS011;9633;50.980;13.850;2024-03-06T08:00:51;42.00;;;27.53;;
18999;SDS011;9633;50.980;13.850;2024-03-06T08:02:27;38.57;;;26.43;;
18999;SDS011;9633;50.980;13.850;2024-03-06T08:04:01;41.00;;;26.37;;
18999;SDS011;9633;50.980;13.850;2024-03-06T08:05:35;37.67;;;24.80;;
18999;SDS011;9633;50.980;13.850;2024-03-06T08:07:07;40.23;;;26.27;;
18999;SDS011;9633;50.980;13.850;2024-03-06T08:08:40;40.33;;;25.47;;
18999;SDS011;9633;50.980;13.850;2024-03-06T08:10:13;37.93;;;25.07;;
18999;SDS011;9633;50.980;13.850;2024-03-06T08:11:50;34.90;;;24.40;;
18999;SDS011;9633;50.980;13.850;2024-03-06T08:13:25;40.40;;;26.20;;
18999;SDS011;9633;50.980;13.850;2024-03-06T08:14:58;36.07;;;25.33;;
18999;SDS011;9633;50.980;13.850;2024-03-06T08:16:33;37.60;;;24.63;;
18999;SDS011;9633;50.980;13.850;2024-03-06T08:18:08;36.03;;;25.67;;
18999;SDS011;9633;50.980;13.850;2024-03-06T08:19:40;38.63;;;26.10;;
18999;SDS011;9633;50.980;13.850;2024-03-06T08:21:15;36.73;;;26.10;;
18999;SDS011;9633;50.980;13.850;2024-03-06T08:22:47;37.73;;;26.57;;
18999;SDS011;9633;50.980;13.850;2024-03-06T08:24:21;36.07;;;26.77;;
18999;SDS011;9633;50.980;13.850;2024-03-06T08:25:53;35.80;;;25.90;;
18999;SDS011;9633;50.980;13.850;2024-03-06T08:27:27;35.37;;;25.33;;
18999;SDS011;9633;50.980;13.850;2024-03-06T08:29:00;37.83;;;25.10;;
18999;SDS011;9633;50.980;13.850;2024-03-06T08:30:32;38.37;;;25.33;;
18999;SDS011;9633;50.980;13.850;2024-03-06T08:32:05;34.73;;;25.17;;
18999;SDS011;9633;50.980;13.850;2024-03-06T08:33:38;34.90;;;25.23;;
18999;SDS011;9633;50.980;13.850;2024-03-06T08:35:11;35.27;;;25.00;;
18999;SDS011;9633;50.980;13.850;2024-03-06T08:36:53;37.43;;;26.40;;
18999;SDS011;9633;50.980;13.850;2024-03-06T08:38:26;38.90;;;27.30;;
18999;SDS011;9633;50.980;13.850;2024-03-06T08:39:59;36.50;;;26.23;;
18999;SDS011;9633;50.980;13.850;2024-03-06T08:41:32;38.03;;;27.30;;
18999;SDS011;9633;50.980;13.850;2024-03-06T08:43:05;37.00;;;26.30;;
18999;SDS011;9633;50.980;13.850;2024-03-06T08:44:37;38.90;;;27.17;;
18999;SDS011;9633;50.980;13.850;2024-03-06T08:46:10;37.00;;;26.93;;
18999;SDS011;9633;50.980;13.850;2024-03-06T08:47:44;39.00;;;27.10;;
18999;SDS011;9633;50.980;13.850;2024-03-06T08:49:18;36.33;;;26.00;;
18999;SDS011;9633;50.980;13.850;2024-03-06T08:50:51;40.03;;;26.60;;
18999;SDS011;9633;50.980;13.850;2024-03-06T08:52:25;38.77;;;27.13;;
18999;SDS011;9633;50.980;13.850;2024-03-06T08:53:58;37.73;;;26.97;;
18999;SDS011;9633;50.980;13.850;2024-03-06T08:55:31;47.70;;;33.20;;
18999;SDS011;9633;50.980;13.850;2024-03-06T08:57:04;36.03;;;26.40;;
18999;SDS011;9633;50.980;13.850;2024-03-06T08:58:37;38.00;;;26.83;;
18999;SDS011;9633;50.980;13.850;2024-03-06T09:00:11;43.10;;;28.90;;
18999;SDS011;9633;50.980;13.850;2024-03-06T09:01:43;38.80;;;27.10;;
18999;SDS011;9633;50.980;13.850;2024-03-06T09:03:16;41.57;;;28.57;;
18999;SDS011;9633;50.980;13.850;2024-03-06T09:04:49;38.50;;;28.47;;
18999;SDS011;9633;50.980;13.850;2024-03-06T09:06:23;40.63;;;28.00;;
18999;SDS011;9633;50.980;13.850;2024-03-06T09:07:58;35.83;;;26.13;;
18999;SDS011;9633;50.980;13.850;2024-03-06T09:09:33;40.30;;;28.20;;
18999;SDS011;9633;50.980;13.850;2024-03-06T09:11:06;38.33;;;28.50;;
18999;SDS011;9633;50.980;13.850;2024-03-06T09:12:39;37.67;;;27.37;;
18999;SDS011;9633;50.980;13.850;2024-03-06T09:14:13;38.07;;;29.03;;